sensor_id;sensor_type;location;lat;lon;timestamp;P1;durP1;ratioP1;P2;durP2;ratioP2
10383;SDS011;5238;43.508;4.980;2023-05-18T00:01:17;2.50;;;1.20;;
10383;SDS011;5238;43.508;4.980;2023-05-18T00:03:54;1.90;;;1.27;;
10383;SDS011;5238;43.508;4.980;2023-05-18T00:06:22;2.53;;;1.33;;
10383;SDS011;5238;43.508;4.980;2023-05-18T00:08:51;2.63;;;1.50;;
10383;SDS011;5238;43.508;4.980;2023-05-18T00:11:21;1.73;;;1.35;;
10383;SDS011;5238;43.508;4.980;2023-05-18T00:13:53;3.45;;;1.50;;
10383;SDS011;5238;43.508;4.980;2023-05-18T00:16:21;1.95;;;1.20;;
10383;SDS011;5238;43.508;4.980;2023-05-18T00:18:50;5.32;;;1.75;;
10383;SDS011;5238;43.508;4.980;2023-05-18T00:21:18;2.00;;;1.70;;
10383;SDS011;5238;43.508;4.980;2023-05-18T00:23:54;3.10;;;1.40;;
10383;SDS011;5238;43.508;4.980;2023-05-18T00:29:20;4.38;;;1.77;;
10383;SDS011;5238;43.508;4.980;2023-05-18T00:31:49;1.83;;;1.17;;
10383;SDS011;5238;43.508;4.980;2023-05-18T00:34:23;2.30;;;1.50;;
10383;SDS011;5238;43.508;4.980;2023-05-18T00:36:52;2.20;;;1.25;;
10383;SDS011;5238;43.508;4.980;2023-05-18T00:39:20;5.03;;;1.33;;
10383;SDS011;5238;43.508;4.980;2023-05-18T00:41:57;2.45;;;1.48;;
10383;SDS011;5238;43.508;4.980;2023-05-18T00:44:26;1.67;;;1.45;;
10383;SDS011;5238;43.508;4.980;2023-05-18T00:46:57;3.15;;;1.25;;
10383;SDS011;5238;43.508;4.980;2023-05-18T00:49:26;3.72;;;1.30;;
10383;SDS011;5238;43.508;4.980;2023-05-18T00:51:54;2.47;;;1.38;;
10383;SDS011;5238;43.508;4.980;2023-05-18T00:54:25;2.97;;;1.35;;
10383;SDS011;5238;43.508;4.980;2023-05-18T00:57:11;2.50;;;1.58;;
10383;SDS011;5238;43.508;4.980;2023-05-18T00:59:44;3.13;;;1.55;;
10383;SDS011;5238;43.508;4.980;2023-05-18T01:02:13;1.98;;;1.27;;
10383;SDS011;5238;43.508;4.980;2023-05-18T01:04:46;5.47;;;2.13;;
10383;SDS011;5238;43.508;4.980;2023-05-18T01:07:27;2.42;;;1.30;;
10383;SDS011;5238;43.508;4.980;2023-05-18T01:09:57;3.08;;;1.48;;
10383;SDS011;5238;43.508;4.980;2023-05-18T01:12:36;4.47;;;1.60;;
10383;SDS011;5238;43.508;4.980;2023-05-18T01:15:13;3.72;;;1.58;;
10383;SDS011;5238;43.508;4.980;2023-05-18T01:17:45;3.13;;;1.35;;
10383;SDS011;5238;43.508;4.980;2023-05-18T01:20:30;2.47;;;1.60;;
10383;SDS011;5238;43.508;4.980;2023-05-18T01:23:13;1.73;;;1.38;;
10383;SDS011;5238;43.508;4.980;2023-05-18T01:29:07;4.32;;;1.45;;
10383;SDS011;5238;43.508;4.980;2023-05-18T01:31:44;2.97;;;1.45;;
10383;SDS011;5238;43.508;4.980;2023-05-18T01:34:13;3.08;;;1.55;;
10383;SDS011;5238;43.508;4.980;2023-05-18T01:36:41;5.53;;;1.95;;
10383;SDS011;5238;43.508;4.980;2023-05-18T01:39:12;2.95;;;1.73;;
10383;SDS011;5238;43.508;4.980;2023-05-18T01:41:51;2.20;;;1.65;;
10383;SDS011;5238;43.508;4.980;2023-05-18T01:44:38;6.63;;;1.73;;
10383;SDS011;5238;43.508;4.980;2023-05-18T01:47:13;2.45;;;1.48;;
10383;SDS011;5238;43.508;4.980;2023-05-18T01:49:42;2.50;;;1.30;;
10383;SDS011;5238;43.508;4.980;2023-05-18T01:52:15;3.72;;;1.73;;
10383;SDS011;5238;43.508;4.980;2023-05-18T01:54:47;2.97;;;2.00;;
10383;SDS011;5238;43.508;4.980;2023-05-18T01:57:19;3.53;;;2.00;;
10383;SDS011;5238;43.508;4.980;2023-05-18T01:59:55;3.25;;;1.70;;
10383;SDS011;5238;43.508;4.980;2023-05-18T02:02:24;2.78;;;1.50;;
10383;SDS011;5238;43.508;4.980;2023-05-18T02:04:57;3.28;;;1.52;;
10383;SDS011;5238;43.508;4.980;2023-05-18T02:07:25;1.70;;;1.25;;
10383;SDS011;5238;43.508;4.980;2023-05-18T02:09:56;3.65;;;1.40;;
10383;SDS011;5238;43.508;4.980;2023-05-18T02:12:40;3.38;;;1.63;;
10383;SDS011;5238;43.508;4.980;2023-05-18T02:15:13;4.05;;;1.73;;
10383;SDS011;5238;43.508;4.980;2023-05-18T02:17:46;2.58;;;1.40;;
10383;SDS011;5238;43.508;4.980;2023-05-18T02:20:27;2.08;;;1.60;;
10383;SDS011;5238;43.508;4.980;2023-05-18T02:23:00;2.75;;;1.67;;
10383;SDS011;5238;43.508;4.980;2023-05-18T02:25:27;4.03;;;1.70;;
10383;SDS011;5238;43.508;4.980;2023-05-18T02:28:00;2.83;;;1.83;;
10383;SDS011;5238;43.508;4.980;2023-05-18T02:30:28;3.20;;;1.73;;
10383;SDS011;5238;43.508;4.980;2023-05-18T02:33:05;3.28;;;1.88;;
10383;SDS011;5238;43.508;4.980;2023-05-18T02:35:35;3.67;;;1.88;;
10383;SDS011;5238;43.508;4.980;2023-05-18T02:38:05;3.53;;;1.60;;
10383;SDS011;5238;43.508;4.980;2023-05-18T02:40:32;2.25;;;1.77;;
10383;SDS011;5238;43.508;4.980;2023-05-18T02:43:07;2.22;;;1.58;;
10383;SDS011;5238;43.508;4.980;2023-05-18T02:45:35;4.15;;;2.05;;
10383;SDS011;5238;43.508;4.980;2023-05-18T02:48:03;3.58;;;1.83;;
10383;SDS011;5238;43.508;4.980;2023-05-18T02:50:38;5.43;;;1.88;;
10383;SDS011;5238;43.508;4.980;2023-05-18T02:53:08;2.53;;;1.70;;
10383;SDS011;5238;43.508;4.980;2023-05-18T02:55:40;3.28;;;1.83;;
10383;SDS011;5238;43.508;4.980;2023-05-18T02:58:12;3.92;;;1.70;;
10383;SDS011;5238;43.508;4.980;2023-05-18T03:00:41;4.78;;;1.83;;
10383;SDS011;5238;43.508;4.980;2023-05-18T03:03:10;3.58;;;1.70;;
10383;SDS011;5238;43.508;4.980;2023-05-18T03:05:40;2.65;;;1.75;;
10383;SDS011;5238;43.508;4.980;2023-05-18T03:08:12;2.85;;;1.88;;
10383;SDS011;5238;43.508;4.980;2023-05-18T03:10:44;4.13;;;1.98;;
10383;SDS011;5238;43.508;4.980;2023-05-18T03:13:16;3.30;;;1.80;;
10383;SDS011;5238;43.508;4.980;2023-05-18T03:15:44;2.55;;;1.75;;
10383;SDS011;5238;43.508;4.980;2023-05-18T03:18:13;2.95;;;1.92;;
10383;SDS011;5238;43.508;4.980;2023-05-18T03:20:40;3.60;;;2.25;;
10383;SDS011;5238;43.508;4.980;2023-05-18T03:23:08;2.88;;;1.88;;
10383;SDS011;5238;43.508;4.980;2023-05-18T03:25:41;3.85;;;2.03;;
10383;SDS011;5238;43.508;4.980;2023-05-18T03:28:09;3.33;;;1.90;;
10383;SDS011;5238;43.508;4.980;2023-05-18T03:30:38;3.85;;;2.10;;
10383;SDS011;5238;43.508;4.980;2023-05-18T03:33:05;4.97;;;2.10;;
10383;SDS011;5238;43.508;4.980;2023-05-18T03:35:33;4.43;;;2.45;;
10383;SDS011;5238;43.508;4.980;2023-05-18T03:38:01;3.65;;;1.70;;
10383;SDS011;5238;43.508;4.980;2023-05-18T03:40:31;3.30;;;2.08;;
10383;SDS011;5238;43.508;4.980;2023-05-18T03:43:01;3.85;;;1.75;;
10383;SDS011;5238;43.508;4.980;2023-05-18T03:45:32;4.07;;;1.98;;
10383;SDS011;5238;43.508;4.980;2023-05-18T03:48:01;2.65;;;2.00;;
10383;SDS011;5238;43.508;4.980;2023-05-18T03:50:28;2.97;;;1.98;;
10383;SDS011;5238;43.508;4.980;2023-05-18T03:52:56;3.10;;;1.90;;
10383;SDS011;5238;43.508;4.980;2023-05-18T03:55:23;6.93;;;2.63;;
10383;SDS011;5238;43.508;4.980;2023-05-18T03:57:50;4.95;;;2.40;;
10383;SDS011;5238;43.508;4.980;2023-05-18T04:00:19;4.43;;;2.55;;
10383;SDS011;5238;43.508;4.980;2023-05-18T04:02:48;2.55;;;2.00;;
10383;SDS011;5238;43.508;4.980;2023-05-18T04:05:18;5.03;;;2.78;;
10383;SDS011;5238;43.508;4.980;2023-05-18T04:07:48;2.58;;;2.00;;
10383;SDS011;5238;43.508;4.980;2023-05-18T04:10:16;3.58;;;2.78;;
10383;SDS011;5238;43.508;4.980;2023-05-18T04:12:45;5.25;;;2.65;;
10383;SDS011;5238;43.508;4.980;2023-05-18T04:15:13;3.60;;;2.40;;
10383;SDS011;5238;43.508;4.980;2023-05-18T04:17:41;3.97;;;2.53;;
10383;SDS011;5238;43.508;4.980;2023-05-18T04:20:17;6.03;;;2.78;;
10383;SDS011;5238;43.508;4.980;2023-05-18T04:22:47;3.47;;;2.45;;
10383;SDS011;5238;43.508;4.980;2023-05-18T04:25:21;3.53;;;2.40;;
10383;SDS011;5238;43.508;4.980;2023-05-18T04:27:53;6.18;;;2.60;;
10383;SDS011;5238;43.508;4.980;2023-05-18T04:30:25;3.97;;;2.45;;
10383;SDS011;5238;43.508;4.980;2023-05-18T04:32:59;4.10;;;2.47;;
10383;SDS011;5238;43.508;4.980;2023-05-18T04:38:13;3.05;;;2.33;;
10383;SDS011;5238;43.508;4.980;2023-05-18T04:40:40;2.80;;;2.42;;
10383;SDS011;5238;43.508;4.980;2023-05-18T04:43:14;3.72;;;2.30;;
10383;SDS011;5238;43.508;4.980;2023-05-18T04:45:45;3.83;;;2.00;;
10383;SDS011;5238;43.508;4.980;2023-05-18T04:48:16;3.30;;;2.47;;
10383;SDS011;5238;43.508;4.980;2023-05-18T04:50:52;4.32;;;2.42;;
10383;SDS011;5238;43.508;4.980;2023-05-18T04:53:23;2.40;;;2.20;;
10383;SDS011;5238;43.508;4.980;2023-05-18T04:55:54;4.38;;;2.30;;
10383;SDS011;5238;43.508;4.980;2023-05-18T04:58:27;4.28;;;2.13;;
10383;SDS011;5238;43.508;4.980;2023-05-18T05:00:58;3.03;;;2.10;;
10383;SDS011;5238;43.508;4.980;2023-05-18T05:03:26;4.15;;;2.15;;
10383;SDS011;5238;43.508;4.980;2023-05-18T05:06:00;3.03;;;2.20;;
10383;SDS011;5238;43.508;4.980;2023-05-18T05:08:29;5.22;;;2.50;;
10383;SDS011;5238;43.508;4.980;2023-05-18T05:10:57;4.43;;;2.22;;
10383;SDS011;5238;43.508;4.980;2023-05-18T05:13:25;3.95;;;2.22;;
10383;SDS011;5238;43.508;4.980;2023-05-18T05:15:54;3.35;;;2.30;;
10383;SDS011;5238;43.508;4.980;2023-05-18T05:18:27;2.88;;;2.50;;
10383;SDS011;5238;43.508;4.980;2023-05-18T05:21:08;3.08;;;2.42;;
10383;SDS011;5238;43.508;4.980;2023-05-18T05:23:37;4.03;;;2.13;;
10383;SDS011;5238;43.508;4.980;2023-05-18T05:26:09;3.60;;;2.25;;
10383;SDS011;5238;43.508;4.980;2023-05-18T05:28:38;2.60;;;2.40;;
10383;SDS011;5238;43.508;4.980;2023-05-18T05:31:07;2.53;;;2.17;;
10383;SDS011;5238;43.508;4.980;2023-05-18T05:33:36;3.33;;;2.08;;
10383;SDS011;5238;43.508;4.980;2023-05-18T05:36:04;3.97;;;2.00;;
10383;SDS011;5238;43.508;4.980;2023-05-18T05:38:37;3.95;;;2.17;;
10383;SDS011;5238;43.508;4.980;2023-05-18T05:41:08;2.67;;;2.13;;
10383;SDS011;5238;43.508;4.980;2023-05-18T05:43:37;3.08;;;1.98;;
10383;SDS011;5238;43.508;4.980;2023-05-18T05:46:12;4.75;;;2.00;;
10383;SDS011;5238;43.508;4.980;2023-05-18T05:48:39;3.40;;;2.00;;
10383;SDS011;5238;43.508;4.980;2023-05-18T05:51:06;4.15;;;2.10;;
10383;SDS011;5238;43.508;4.980;2023-05-18T05:53:35;4.38;;;2.28;;
10383;SDS011;5238;43.508;4.980;2023-05-18T05:56:04;2.65;;;1.95;;
10383;SDS011;5238;43.508;4.980;2023-05-18T05:58:32;3.97;;;2.00;;
10383;SDS011;5238;43.508;4.980;2023-05-18T06:00:59;3.63;;;2.05;;
10383;SDS011;5238;43.508;4.980;2023-05-18T06:03:26;5.13;;;2.00;;
10383;SDS011;5238;43.508;4.980;2023-05-18T06:05:55;5.10;;;2.30;;
10383;SDS011;5238;43.508;4.980;2023-05-18T06:08:22;2.20;;;1.90;;
10383;SDS011;5238;43.508;4.980;2023-05-18T06:10:49;3.42;;;2.33;;
10383;SDS011;5238;43.508;4.980;2023-05-18T06:16:10;3.88;;;1.90;;
10383;SDS011;5238;43.508;4.980;2023-05-18T06:18:37;3.20;;;2.03;;
10383;SDS011;5238;43.508;4.980;2023-05-18T06:21:07;2.67;;;2.10;;
10383;SDS011;5238;43.508;4.980;2023-05-18T06:23:35;3.03;;;1.90;;
10383;SDS011;5238;43.508;4.980;2023-05-18T06:26:04;3.08;;;1.70;;
10383;SDS011;5238;43.508;4.980;2023-05-18T06:28:46;3.85;;;1.90;;
10383;SDS011;5238;43.508;4.980;2023-05-18T06:31:16;3.85;;;2.00;;
10383;SDS011;5238;43.508;4.980;2023-05-18T06:33:49;5.07;;;2.00;;
10383;SDS011;5238;43.508;4.980;2023-05-18T06:36:16;4.20;;;1.70;;
10383;SDS011;5238;43.508;4.980;2023-05-18T06:38:44;2.05;;;1.58;;
10383;SDS011;5238;43.508;4.980;2023-05-18T06:41:17;2.67;;;1.95;;
10383;SDS011;5238;43.508;4.980;2023-05-18T06:46:32;2.20;;;1.92;;
10383;SDS011;5238;43.508;4.980;2023-05-18T06:49:07;4.30;;;1.92;;
10383;SDS011;5238;43.508;4.980;2023-05-18T06:51:40;2.10;;;1.60;;
10383;SDS011;5238;43.508;4.980;2023-05-18T06:54:09;2.50;;;1.75;;
10383;SDS011;5238;43.508;4.980;2023-05-18T06:56:38;2.17;;;1.48;;
10383;SDS011;5238;43.508;4.980;2023-05-18T06:59:07;2.97;;;1.80;;
10383;SDS011;5238;43.508;4.980;2023-05-18T07:01:34;4.65;;;1.73;;
10383;SDS011;5238;43.508;4.980;2023-05-18T07:04:04;1.60;;;1.50;;
10383;SDS011;5238;43.508;4.980;2023-05-18T07:06:34;3.88;;;1.80;;
10383;SDS011;5238;43.508;4.980;2023-05-18T07:09:15;2.53;;;1.60;;
10383;SDS011;5238;43.508;4.980;2023-05-18T07:11:50;1.92;;;1.45;;
10383;SDS011;5238;43.508;4.980;2023-05-18T07:14:26;2.05;;;1.70;;
10383;SDS011;5238;43.508;4.980;2023-05-18T07:16:54;3.55;;;1.60;;
10383;SDS011;5238;43.508;4.980;2023-05-18T07:19:22;2.22;;;1.50;;
10383;SDS011;5238;43.508;4.980;2023-05-18T07:21:53;3.38;;;1.80;;
10383;SDS011;5238;43.508;4.980;2023-05-18T07:24:23;2.72;;;1.70;;
10383;SDS011;5238;43.508;4.980;2023-05-18T07:26:54;2.05;;;1.67;;
10383;SDS011;5238;43.508;4.980;2023-05-18T07:29:31;1.38;;;1.25;;
10383;SDS011;5238;43.508;4.980;2023-05-18T07:31:58;5.38;;;2.13;;
10383;SDS011;5238;43.508;4.980;2023-05-18T07:34:25;2.55;;;1.60;;
10383;SDS011;5238;43.508;4.980;2023-05-18T07:36:53;2.05;;;1.45;;
10383;SDS011;5238;43.508;4.980;2023-05-18T07:39:21;4.28;;;1.60;;
10383;SDS011;5238;43.508;4.980;2023-05-18T07:41:57;4.00;;;1.92;;
10383;SDS011;5238;43.508;4.980;2023-05-18T07:44:36;3.90;;;2.03;;
10383;SDS011;5238;43.508;4.980;2023-05-18T07:47:05;3.55;;;1.50;;
10383;SDS011;5238;43.508;4.980;2023-05-18T07:49:34;2.60;;;1.92;;
10383;SDS011;5238;43.508;4.980;2023-05-18T07:52:03;1.92;;;1.60;;
10383;SDS011;5238;43.508;4.980;2023-05-18T07:54:45;4.30;;;1.80;;
10383;SDS011;5238;43.508;4.980;2023-05-18T07:57:19;3.38;;;1.85;;
10383;SDS011;5238;43.508;4.980;2023-05-18T08:02:44;2.17;;;1.80;;
10383;SDS011;5238;43.508;4.980;2023-05-18T08:05:11;3.63;;;1.65;;
10383;SDS011;5238;43.508;4.980;2023-05-18T08:07:52;2.30;;;1.80;;
10383;SDS011;5238;43.508;4.980;2023-05-18T08:10:28;2.60;;;1.70;;
10383;SDS011;5238;43.508;4.980;2023-05-18T08:12:59;2.00;;;1.70;;
10383;SDS011;5238;43.508;4.980;2023-05-18T08:15:33;3.17;;;1.70;;
10383;SDS011;5238;43.508;4.980;2023-05-18T08:18:02;4.60;;;1.85;;
10383;SDS011;5238;43.508;4.980;2023-05-18T08:20:32;1.45;;;1.35;;
10383;SDS011;5238;43.508;4.980;2023-05-18T08:23:13;1.92;;;1.75;;
10383;SDS011;5238;43.508;4.980;2023-05-18T08:25:43;2.03;;;1.45;;
10383;SDS011;5238;43.508;4.980;2023-05-18T08:28:17;2.47;;;1.52;;
10383;SDS011;5238;43.508;4.980;2023-05-18T08:30:58;4.32;;;1.35;;
10383;SDS011;5238;43.508;4.980;2023-05-18T08:33:39;3.42;;;1.90;;
10383;SDS011;5238;43.508;4.980;2023-05-18T08:36:07;2.10;;;1.85;;
10383;SDS011;5238;43.508;4.980;2023-05-18T08:38:35;3.17;;;1.38;;
10383;SDS011;5238;43.508;4.980;2023-05-18T08:41:04;3.05;;;1.50;;
10383;SDS011;5238;43.508;4.980;2023-05-18T08:44:00;2.67;;;1.35;;
10383;SDS011;5238;43.508;4.980;2023-05-18T08:46:40;2.13;;;1.60;;
10383;SDS011;5238;43.508;4.980;2023-05-18T08:49:24;2.28;;;1.30;;
10383;SDS011;5238;43.508;4.980;2023-05-18T08:51:56;3.63;;;1.75;;
10383;SDS011;5238;43.508;4.980;2023-05-18T08:54:42;2.40;;;1.45;;
10383;SDS011;5238;43.508;4.980;2023-05-18T08:57:09;2.30;;;1.65;;
10383;SDS011;5238;43.508;4.980;2023-05-18T08:59:38;2.13;;;1.52;;
10383;SDS011;5238;43.508;4.980;2023-05-18T09:02:13;3.13;;;1.98;;
10383;SDS011;5238;43.508;4.980;2023-05-18T09:04:44;2.38;;;1.60;;
10383;SDS011;5238;43.508;4.980;2023-05-18T09:07:26;3.05;;;1.60;;
10383;SDS011;5238;43.508;4.980;2023-05-18T09:09:55;2.35;;;1.50;;
10383;SDS011;5238;43.508;4.980;2023-05-18T09:12:26;2.63;;;1.52;;
10383;SDS011;5238;43.508;4.980;2023-05-18T09:15:04;3.45;;;1.60;;
10383;SDS011;5238;43.508;4.980;2023-05-18T09:17:35;2.38;;;1.83;;
10383;SDS011;5238;43.508;4.980;2023-05-18T09:20:14;2.25;;;1.50;;
10383;SDS011;5238;43.508;4.980;2023-05-18T09:22:48;1.95;;;1.30;;
10383;SDS011;5238;43.508;4.980;2023-05-18T09:25:20;2.92;;;1.45;;
10383;SDS011;5238;43.508;4.980;2023-05-18T09:27:52;2.75;;;1.60;;
10383;SDS011;5238;43.508;4.980;2023-05-18T09:30:27;2.72;;;2.17;;
10383;SDS011;5238;43.508;4.980;2023-05-18T09:32:56;2.03;;;1.67;;
10383;SDS011;5238;43.508;4.980;2023-05-18T09:35:33;1.80;;;1.52;;
10383;SDS011;5238;43.508;4.980;2023-05-18T09:38:14;4.10;;;1.50;;
10383;SDS011;5238;43.508;4.980;2023-05-18T09:40:52;2.55;;;2.13;;
10383;SDS011;5238;43.508;4.980;2023-05-18T09:43:20;3.35;;;1.60;;
10383;SDS011;5238;43.508;4.980;2023-05-18T09:45:56;3.40;;;1.60;;
10383;SDS011;5238;43.508;4.980;2023-05-18T09:48:35;2.17;;;1.50;;
10383;SDS011;5238;43.508;4.980;2023-05-18T09:51:06;2.08;;;1.65;;
10383;SDS011;5238;43.508;4.980;2023-05-18T09:53:35;3.20;;;1.90;;
10383;SDS011;5238;43.508;4.980;2023-05-18T09:56:10;3.00;;;1.52;;
10383;SDS011;5238;43.508;4.980;2023-05-18T09:58:42;2.75;;;1.80;;
10383;SDS011;5238;43.508;4.980;2023-05-18T10:01:18;3.03;;;1.80;;
10383;SDS011;5238;43.508;4.980;2023-05-18T10:03:49;2.67;;;1.80;;
10383;SDS011;5238;43.508;4.980;2023-05-18T10:06:17;3.03;;;1.92;;
10383;SDS011;5238;43.508;4.980;2023-05-18T10:08:46;2.88;;;2.00;;
10383;SDS011;5238;43.508;4.980;2023-05-18T10:11:18;2.97;;;2.00;;
10383;SDS011;5238;43.508;4.980;2023-05-18T10:13:46;4.40;;;2.00;;
10383;SDS011;5238;43.508;4.980;2023-05-18T10:16:22;2.63;;;2.00;;
10383;SDS011;5238;43.508;4.980;2023-05-18T10:18:57;2.72;;;1.80;;
10383;SDS011;5238;43.508;4.980;2023-05-18T10:21:39;4.88;;;1.77;;
10383;SDS011;5238;43.508;4.980;2023-05-18T10:24:13;4.03;;;1.83;;
10383;SDS011;5238;43.508;4.980;2023-05-18T10:27:04;2.30;;;1.65;;
10383;SDS011;5238;43.508;4.980;2023-05-18T10:29:39;1.63;;;1.48;;
10383;SDS011;5238;43.508;4.980;2023-05-18T10:32:34;3.67;;;1.45;;
10383;SDS011;5238;43.508;4.980;2023-05-18T10:35:13;2.40;;;1.48;;
10383;SDS011;5238;43.508;4.980;2023-05-18T10:37:52;2.20;;;1.52;;
10383;SDS011;5238;43.508;4.980;2023-05-18T10:40:27;2.00;;;1.40;;
10383;SDS011;5238;43.508;4.980;2023-05-18T10:42:58;3.03;;;1.67;;
10383;SDS011;5238;43.508;4.980;2023-05-18T10:45:32;2.33;;;1.50;;
10383;SDS011;5238;43.508;4.980;2023-05-18T10:48:01;3.33;;;2.00;;
10383;SDS011;5238;43.508;4.980;2023-05-18T10:50:39;3.65;;;2.10;;
10383;SDS011;5238;43.508;4.980;2023-05-18T10:53:08;3.05;;;2.08;;
10383;SDS011;5238;43.508;4.980;2023-05-18T10:55:38;4.38;;;2.03;;
10383;SDS011;5238;43.508;4.980;2023-05-18T10:58:08;3.10;;;2.35;;
10383;SDS011;5238;43.508;4.980;2023-05-18T11:00:40;3.38;;;1.92;;
10383;SDS011;5238;43.508;4.980;2023-05-18T11:03:10;2.97;;;2.20;;
10383;SDS011;5238;43.508;4.980;2023-05-18T11:08:49;2.25;;;1.70;;
10383;SDS011;5238;43.508;4.980;2023-05-18T11:11:16;5.18;;;2.20;;
10383;SDS011;5238;43.508;4.980;2023-05-18T11:13:53;3.33;;;2.30;;
10383;SDS011;5238;43.508;4.980;2023-05-18T11:16:20;2.75;;;1.85;;
10383;SDS011;5238;43.508;4.980;2023-05-18T11:19:03;3.83;;;2.50;;
10383;SDS011;5238;43.508;4.980;2023-05-18T11:21:51;4.50;;;2.42;;
10383;SDS011;5238;43.508;4.980;2023-05-18T11:24:36;4.60;;;3.00;;
10383;SDS011;5238;43.508;4.980;2023-05-18T11:27:07;6.68;;;3.03;;
10383;SDS011;5238;43.508;4.980;2023-05-18T11:29:40;4.93;;;2.63;;
10383;SDS011;5238;43.508;4.980;2023-05-18T11:32:23;4.72;;;2.95;;
10383;SDS011;5238;43.508;4.980;2023-05-18T11:34:57;3.83;;;2.88;;
10383;SDS011;5238;43.508;4.980;2023-05-18T11:37:53;5.22;;;2.53;;
10383;SDS011;5238;43.508;4.980;2023-05-18T11:43:19;3.75;;;3.10;;
10383;SDS011;5238;43.508;4.980;2023-05-18T11:45:52;5.25;;;2.65;;
10383;SDS011;5238;43.508;4.980;2023-05-18T11:48:25;7.72;;;3.83;;
10383;SDS011;5238;43.508;4.980;2023-05-18T11:50:55;5.88;;;3.75;;
10383;SDS011;5238;43.508;4.980;2023-05-18T11:53:27;2.78;;;2.03;;
10383;SDS011;5238;43.508;4.980;2023-05-18T11:56:09;3.42;;;1.80;;
10383;SDS011;5238;43.508;4.980;2023-05-18T11:58:39;2.97;;;2.00;;
10383;SDS011;5238;43.508;4.980;2023-05-18T12:01:20;4.30;;;2.67;;
10383;SDS011;5238;43.508;4.980;2023-05-18T12:03:56;6.25;;;3.13;;
10383;SDS011;5238;43.508;4.980;2023-05-18T12:06:27;5.55;;;2.85;;
10383;SDS011;5238;43.508;4.980;2023-05-18T12:08:57;2.97;;;2.28;;
10383;SDS011;5238;43.508;4.980;2023-05-18T12:11:27;3.15;;;2.35;;
10383;SDS011;5238;43.508;4.980;2023-05-18T12:13:58;2.00;;;1.80;;
10383;SDS011;5238;43.508;4.980;2023-05-18T12:16:26;2.00;;;1.80;;
10383;SDS011;5238;43.508;4.980;2023-05-18T12:18:57;3.47;;;1.75;;
10383;SDS011;5238;43.508;4.980;2023-05-18T12:21:38;2.67;;;1.70;;
10383;SDS011;5238;43.508;4.980;2023-05-18T12:24:21;2.17;;;1.40;;
10383;SDS011;5238;43.508;4.980;2023-05-18T12:27:02;2.92;;;1.80;;
10383;SDS011;5238;43.508;4.980;2023-05-18T12:29:40;3.65;;;1.80;;
10383;SDS011;5238;43.508;4.980;2023-05-18T12:32:10;3.33;;;2.05;;
10383;SDS011;5238;43.508;4.980;2023-05-18T12:37:40;3.88;;;2.17;;
10383;SDS011;5238;43.508;4.980;2023-05-18T12:40:14;4.90;;;2.15;;
10383;SDS011;5238;43.508;4.980;2023-05-18T12:42:49;6.25;;;2.47;;
10383;SDS011;5238;43.508;4.980;2023-05-18T12:45:17;2.75;;;2.20;;
10383;SDS011;5238;43.508;4.980;2023-05-18T12:47:45;2.83;;;2.00;;
10383;SDS011;5238;43.508;4.980;2023-05-18T12:50:18;4.13;;;2.30;;
10383;SDS011;5238;43.508;4.980;2023-05-18T12:52:46;3.38;;;2.08;;
10383;SDS011;5238;43.508;4.980;2023-05-18T12:55:16;2.97;;;2.17;;
10383;SDS011;5238;43.508;4.980;2023-05-18T12:57:45;4.60;;;2.13;;
10383;SDS011;5238;43.508;4.980;2023-05-18T13:00:24;4.78;;;3.55;;
10383;SDS011;5238;43.508;4.980;2023-05-18T13:02:51;5.40;;;2.65;;
10383;SDS011;5238;43.508;4.980;2023-05-18T13:05:22;5.63;;;2.83;;
10383;SDS011;5238;43.508;4.980;2023-05-18T13:07:49;4.88;;;3.83;;
10383;SDS011;5238;43.508;4.980;2023-05-18T13:10:18;8.05;;;3.67;;
10383;SDS011;5238;43.508;4.980;2023-05-18T13:12:46;3.50;;;3.00;;
10383;SDS011;5238;43.508;4.980;2023-05-18T13:15:14;5.20;;;2.95;;
10383;SDS011;5238;43.508;4.980;2023-05-18T13:17:55;4.47;;;2.72;;
10383;SDS011;5238;43.508;4.980;2023-05-18T13:20:28;2.80;;;2.30;;
10383;SDS011;5238;43.508;4.980;2023-05-18T13:22:57;4.43;;;2.75;;
10383;SDS011;5238;43.508;4.980;2023-05-18T13:25:26;3.05;;;2.25;;
10383;SDS011;5238;43.508;4.980;2023-05-18T13:27:53;3.47;;;2.25;;
10383;SDS011;5238;43.508;4.980;2023-05-18T13:30:21;3.55;;;2.63;;
10383;SDS011;5238;43.508;4.980;2023-05-18T13:32:49;2.53;;;1.75;;
10383;SDS011;5238;43.508;4.980;2023-05-18T13:35:17;2.58;;;2.38;;
10383;SDS011;5238;43.508;4.980;2023-05-18T13:37:45;2.78;;;2.25;;
10383;SDS011;5238;43.508;4.980;2023-05-18T13:40:21;4.97;;;2.25;;
10383;SDS011;5238;43.508;4.980;2023-05-18T13:42:59;2.03;;;1.85;;
10383;SDS011;5238;43.508;4.980;2023-05-18T13:45:33;2.00;;;1.65;;
10383;SDS011;5238;43.508;4.980;2023-05-18T13:48:34;3.35;;;1.70;;
10383;SDS011;5238;43.508;4.980;2023-05-18T13:51:02;2.22;;;1.60;;
10383;SDS011;5238;43.508;4.980;2023-05-18T13:53:48;2.10;;;1.40;;
10383;SDS011;5238;43.508;4.980;2023-05-18T13:56:26;1.98;;;1.48;;
10383;SDS011;5238;43.508;4.980;2023-05-18T13:59:11;1.65;;;1.55;;
10383;SDS011;5238;43.508;4.980;2023-05-18T14:01:46;1.77;;;1.55;;
10383;SDS011;5238;43.508;4.980;2023-05-18T14:04:17;1.92;;;1.70;;
10383;SDS011;5238;43.508;4.980;2023-05-18T14:06:46;2.72;;;1.67;;
10383;SDS011;5238;43.508;4.980;2023-05-18T14:09:27;2.13;;;1.92;;
10383;SDS011;5238;43.508;4.980;2023-05-18T14:12:00;2.33;;;1.98;;
10383;SDS011;5238;43.508;4.980;2023-05-18T14:14:38;2.30;;;2.10;;
10383;SDS011;5238;43.508;4.980;2023-05-18T14:17:07;2.53;;;2.20;;
10383;SDS011;5238;43.508;4.980;2023-05-18T14:19:51;2.40;;;2.00;;
10383;SDS011;5238;43.508;4.980;2023-05-18T14:22:26;2.83;;;2.30;;
10383;SDS011;5238;43.508;4.980;2023-05-18T14:24:58;2.92;;;2.20;;
10383;SDS011;5238;43.508;4.980;2023-05-18T14:27:25;4.07;;;2.60;;
10383;SDS011;5238;43.508;4.980;2023-05-18T14:29:54;2.60;;;2.40;;
10383;SDS011;5238;43.508;4.980;2023-05-18T14:32:28;3.22;;;2.22;;
10383;SDS011;5238;43.508;4.980;2023-05-18T14:34:56;3.30;;;2.47;;
10383;SDS011;5238;43.508;4.980;2023-05-18T14:37:24;2.75;;;2.28;;
10383;SDS011;5238;43.508;4.980;2023-05-18T14:39:51;3.25;;;2.35;;
10383;SDS011;5238;43.508;4.980;2023-05-18T14:42:25;3.40;;;2.65;;
10383;SDS011;5238;43.508;4.980;2023-05-18T14:45:29;2.97;;;2.53;;
10383;SDS011;5238;43.508;4.980;2023-05-18T14:47:58;2.50;;;2.30;;
10383;SDS011;5238;43.508;4.980;2023-05-18T14:50:45;2.53;;;2.20;;
10383;SDS011;5238;43.508;4.980;2023-05-18T14:53:22;3.78;;;2.33;;
10383;SDS011;5238;43.508;4.980;2023-05-18T14:55:50;4.70;;;2.30;;
10383;SDS011;5238;43.508;4.980;2023-05-18T14:58:21;2.85;;;2.60;;
10383;SDS011;5238;43.508;4.980;2023-05-18T15:03:47;2.80;;;2.53;;
10383;SDS011;5238;43.508;4.980;2023-05-18T15:06:15;4.50;;;3.03;;
10383;SDS011;5238;43.508;4.980;2023-05-18T15:08:44;4.25;;;2.80;;
10383;SDS011;5238;43.508;4.980;2023-05-18T15:11:18;4.35;;;3.55;;
10383;SDS011;5238;43.508;4.980;2023-05-18T15:14:05;7.10;;;3.40;;
10383;SDS011;5238;43.508;4.980;2023-05-18T15:20:02;5.45;;;4.95;;
10383;SDS011;5238;43.508;4.980;2023-05-18T15:22:30;5.25;;;4.35;;
10383;SDS011;5238;43.508;4.980;2023-05-18T15:25:03;5.00;;;4.50;;
10383;SDS011;5238;43.508;4.980;2023-05-18T15:27:31;5.43;;;4.22;;
10383;SDS011;5238;43.508;4.980;2023-05-18T15:29:58;4.70;;;3.70;;
10383;SDS011;5238;43.508;4.980;2023-05-18T15:35:56;6.00;;;5.50;;
10383;SDS011;5238;43.508;4.980;2023-05-18T15:38:23;4.65;;;4.25;;
10383;SDS011;5238;43.508;4.980;2023-05-18T15:40:53;6.82;;;5.78;;
10383;SDS011;5238;43.508;4.980;2023-05-18T15:43:24;5.75;;;4.90;;
10383;SDS011;5238;43.508;4.980;2023-05-18T15:45:57;7.30;;;4.35;;
10383;SDS011;5238;43.508;4.980;2023-05-18T15:48:25;4.97;;;4.07;;
10383;SDS011;5238;43.508;4.980;2023-05-18T15:50:55;4.93;;;4.53;;
10383;SDS011;5238;43.508;4.980;2023-05-18T15:53:24;4.68;;;3.97;;
10383;SDS011;5238;43.508;4.980;2023-05-18T15:55:52;4.63;;;4.20;;
10383;SDS011;5238;43.508;4.980;2023-05-18T15:58:22;5.75;;;5.18;;
10383;SDS011;5238;43.508;4.980;2023-05-18T16:00:50;6.80;;;5.05;;
10383;SDS011;5238;43.508;4.980;2023-05-18T16:03:17;6.13;;;4.70;;
10383;SDS011;5238;43.508;4.980;2023-05-18T16:05:46;7.00;;;4.40;;
10383;SDS011;5238;43.508;4.980;2023-05-18T16:08:15;5.97;;;4.85;;